sensor_id;sensor_type;location;lat;lon;timestamp;P1;durP1;ratioP1;P2;durP2;ratioP2
22107;SDS011;11220;48.812;9.128;2023-03-04T00:01:36;2.22;;;1.20;;
22107;SDS011;11220;48.812;9.128;2023-03-04T00:04:02;2.00;;;1.38;;
22107;SDS011;11220;48.812;9.128;2023-03-04T00:06:27;2.63;;;1.20;;
22107;SDS011;11220;48.812;9.128;2023-03-04T00:08:53;1.95;;;1.60;;
22107;SDS011;11220;48.812;9.128;2023-03-04T00:11:18;1.92;;;1.50;;
22107;SDS011;11220;48.812;9.128;2023-03-04T00:13:44;1.58;;;1.17;;
22107;SDS011;11220;48.812;9.128;2023-03-04T00:16:09;1.98;;;1.20;;
22107;SDS011;11220;48.812;9.128;2023-03-04T00:18:35;1.92;;;1.30;;
22107;SDS011;11220;48.812;9.128;2023-03-04T00:21:00;1.83;;;1.10;;
22107;SDS011;11220;48.812;9.128;2023-03-04T00:23:26;1.90;;;1.30;;
22107;SDS011;11220;48.812;9.128;2023-03-04T00:25:52;1.95;;;1.20;;
22107;SDS011;11220;48.812;9.128;2023-03-04T00:28:18;1.40;;;1.13;;
22107;SDS011;11220;48.812;9.128;2023-03-04T00:30:43;2.50;;;1.55;;
22107;SDS011;11220;48.812;9.128;2023-03-04T00:33:09;1.65;;;1.23;;
22107;SDS011;11220;48.812;9.128;2023-03-04T00:35:34;1.65;;;1.23;;
22107;SDS011;11220;48.812;9.128;2023-03-04T00:38:00;2.17;;;1.45;;
22107;SDS011;11220;48.812;9.128;2023-03-04T00:40:25;1.67;;;1.00;;
22107;SDS011;11220;48.812;9.128;2023-03-04T00:42:51;2.47;;;1.33;;
22107;SDS011;11220;48.812;9.128;2023-03-04T00:45:17;1.60;;;1.50;;
22107;SDS011;11220;48.812;9.128;2023-03-04T00:47:42;1.98;;;1.27;;
22107;SDS011;11220;48.812;9.128;2023-03-04T00:50:08;1.63;;;1.08;;
22107;SDS011;11220;48.812;9.128;2023-03-04T00:52:34;1.27;;;1.02;;
22107;SDS011;11220;48.812;9.128;2023-03-04T00:55:00;1.40;;;1.10;;
22107;SDS011;11220;48.812;9.128;2023-03-04T00:57:25;1.85;;;1.15;;
22107;SDS011;11220;48.812;9.128;2023-03-04T00:59:51;1.67;;;1.17;;
22107;SDS011;11220;48.812;9.128;2023-03-04T01:02:16;1.70;;;1.10;;
22107;SDS011;11220;48.812;9.128;2023-03-04T01:04:42;1.35;;;1.10;;
22107;SDS011;11220;48.812;9.128;2023-03-04T01:07:07;1.50;;;1.08;;
22107;SDS011;11220;48.812;9.128;2023-03-04T01:09:33;1.17;;;1.00;;
22107;SDS011;11220;48.812;9.128;2023-03-04T01:11:59;1.88;;;1.30;;
22107;SDS011;11220;48.812;9.128;2023-03-04T01:14:25;1.42;;;1.15;;
22107;SDS011;11220;48.812;9.128;2023-03-04T01:16:50;1.92;;;1.23;;
22107;SDS011;11220;48.812;9.128;2023-03-04T01:19:16;1.08;;;0.98;;
22107;SDS011;11220;48.812;9.128;2023-03-04T01:21:41;1.77;;;1.02;;
22107;SDS011;11220;48.812;9.128;2023-03-04T01:24:07;1.25;;;1.13;;
22107;SDS011;11220;48.812;9.128;2023-03-04T01:26:33;2.08;;;1.30;;
22107;SDS011;11220;48.812;9.128;2023-03-04T01:28:58;1.67;;;1.20;;
22107;SDS011;11220;48.812;9.128;2023-03-04T01:31:24;1.67;;;1.00;;
22107;SDS011;11220;48.812;9.128;2023-03-04T01:33:49;1.70;;;1.23;;
22107;SDS011;11220;48.812;9.128;2023-03-04T01:36:15;1.27;;;1.17;;
22107;SDS011;11220;48.812;9.128;2023-03-04T01:38:40;1.85;;;1.17;;
22107;SDS011;11220;48.812;9.128;2023-03-04T01:41:06;1.55;;;1.10;;
22107;SDS011;11220;48.812;9.128;2023-03-04T01:43:32;2.28;;;1.13;;
22107;SDS011;11220;48.812;9.128;2023-03-04T01:46:01;0.80;;;0.80;;
22107;SDS011;11220;48.812;9.128;2023-03-04T01:48:28;1.50;;;1.13;;
22107;SDS011;11220;48.812;9.128;2023-03-04T01:50:58;1.75;;;1.15;;
22107;SDS011;11220;48.812;9.128;2023-03-04T01:53:27;1.23;;;0.93;;
22107;SDS011;11220;48.812;9.128;2023-03-04T01:55:54;1.73;;;1.15;;
22107;SDS011;11220;48.812;9.128;2023-03-04T01:58:39;1.58;;;1.13;;
22107;SDS011;11220;48.812;9.128;2023-03-04T02:01:04;1.77;;;1.10;;
22107;SDS011;11220;48.812;9.128;2023-03-04T02:03:30;1.60;;;1.00;;
22107;SDS011;11220;48.812;9.128;2023-03-04T02:05:55;1.40;;;1.00;;
22107;SDS011;11220;48.812;9.128;2023-03-04T02:08:21;1.88;;;1.25;;
22107;SDS011;11220;48.812;9.128;2023-03-04T02:10:48;1.65;;;1.00;;
22107;SDS011;11220;48.812;9.128;2023-03-04T02:13:16;1.20;;;1.10;;
22107;SDS011;11220;48.812;9.128;2023-03-04T02:15:42;1.30;;;1.20;;
22107;SDS011;11220;48.812;9.128;2023-03-04T02:18:16;1.15;;;1.05;;
22107;SDS011;11220;48.812;9.128;2023-03-04T02:20:47;1.48;;;1.38;;
22107;SDS011;11220;48.812;9.128;2023-03-04T02:23:26;1.67;;;1.30;;
22107;SDS011;11220;48.812;9.128;2023-03-04T02:28:33;2.22;;;1.20;;
22107;SDS011;11220;48.812;9.128;2023-03-04T02:30:58;1.70;;;1.02;;
22107;SDS011;11220;48.812;9.128;2023-03-04T02:33:24;0.98;;;0.85;;
22107;SDS011;11220;48.812;9.128;2023-03-04T02:35:50;1.33;;;0.93;;
22107;SDS011;11220;48.812;9.128;2023-03-04T02:38:15;1.48;;;1.00;;
22107;SDS011;11220;48.812;9.128;2023-03-04T02:40:41;1.77;;;1.20;;
22107;SDS011;11220;48.812;9.128;2023-03-04T02:43:10;1.50;;;1.15;;
22107;SDS011;11220;48.812;9.128;2023-03-04T02:45:41;1.95;;;1.25;;
22107;SDS011;11220;48.812;9.128;2023-03-04T02:48:09;1.83;;;1.35;;
22107;SDS011;11220;48.812;9.128;2023-03-04T02:50:39;1.83;;;1.20;;
22107;SDS011;11220;48.812;9.128;2023-03-04T02:53:07;0.95;;;0.85;;
22107;SDS011;11220;48.812;9.128;2023-03-04T02:55:33;1.70;;;1.10;;
22107;SDS011;11220;48.812;9.128;2023-03-04T02:57:59;1.63;;;0.93;;
22107;SDS011;11220;48.812;9.128;2023-03-04T03:00:25;1.10;;;0.98;;
22107;SDS011;11220;48.812;9.128;2023-03-04T03:02:51;1.38;;;1.00;;
22107;SDS011;11220;48.812;9.128;2023-03-04T03:05:17;1.58;;;1.00;;
22107;SDS011;11220;48.812;9.128;2023-03-04T03:07:43;1.55;;;1.00;;
22107;SDS011;11220;48.812;9.128;2023-03-04T03:10:09;1.75;;;1.10;;
22107;SDS011;11220;48.812;9.128;2023-03-04T03:12:35;1.48;;;1.15;;
22107;SDS011;11220;48.812;9.128;2023-03-04T03:15:00;1.40;;;1.13;;
22107;SDS011;11220;48.812;9.128;2023-03-04T03:17:26;1.70;;;1.08;;
22107;SDS011;11220;48.812;9.128;2023-03-04T03:19:51;1.98;;;1.40;;
22107;SDS011;11220;48.812;9.128;2023-03-04T03:22:17;1.48;;;1.20;;
22107;SDS011;11220;48.812;9.128;2023-03-04T03:24:42;1.63;;;0.93;;
22107;SDS011;11220;48.812;9.128;2023-03-04T03:27:08;1.02;;;0.90;;
22107;SDS011;11220;48.812;9.128;2023-03-04T03:29:33;1.35;;;1.20;;
22107;SDS011;11220;48.812;9.128;2023-03-04T03:31:59;2.22;;;1.20;;
22107;SDS011;11220;48.812;9.128;2023-03-04T03:34:24;1.20;;;1.08;;
22107;SDS011;11220;48.812;9.128;2023-03-04T03:36:50;1.42;;;1.00;;
22107;SDS011;11220;48.812;9.128;2023-03-04T03:39:15;1.83;;;1.35;;
22107;SDS011;11220;48.812;9.128;2023-03-04T03:41:41;1.13;;;1.02;;
22107;SDS011;11220;48.812;9.128;2023-03-04T03:44:07;1.70;;;1.20;;
22107;SDS011;11220;48.812;9.128;2023-03-04T03:46:32;1.35;;;1.10;;
22107;SDS011;11220;48.812;9.128;2023-03-04T03:48:59;1.38;;;1.17;;
22107;SDS011;11220;48.812;9.128;2023-03-04T03:51:25;1.63;;;1.13;;
22107;SDS011;11220;48.812;9.128;2023-03-04T03:53:50;1.65;;;1.08;;
22107;SDS011;11220;48.812;9.128;2023-03-04T03:56:16;1.38;;;1.08;;
22107;SDS011;11220;48.812;9.128;2023-03-04T03:58:41;1.83;;;1.20;;
22107;SDS011;11220;48.812;9.128;2023-03-04T04:01:07;0.90;;;0.90;;
22107;SDS011;11220;48.812;9.128;2023-03-04T04:03:33;1.40;;;0.90;;
22107;SDS011;11220;48.812;9.128;2023-03-04T04:05:59;1.45;;;1.00;;
22107;SDS011;11220;48.812;9.128;2023-03-04T04:08:24;1.30;;;0.85;;
22107;SDS011;11220;48.812;9.128;2023-03-04T04:10:50;1.23;;;0.90;;
22107;SDS011;11220;48.812;9.128;2023-03-04T04:13:16;3.03;;;1.35;;
22107;SDS011;11220;48.812;9.128;2023-03-04T04:15:41;1.92;;;1.05;;
22107;SDS011;11220;48.812;9.128;2023-03-04T04:18:07;1.73;;;1.02;;
22107;SDS011;11220;48.812;9.128;2023-03-04T04:20:33;1.65;;;1.25;;
22107;SDS011;11220;48.812;9.128;2023-03-04T04:22:59;1.50;;;1.00;;
22107;SDS011;11220;48.812;9.128;2023-03-04T04:25:25;2.05;;;1.23;;
22107;SDS011;11220;48.812;9.128;2023-03-04T04:27:50;1.45;;;1.08;;
22107;SDS011;11220;48.812;9.128;2023-03-04T04:30:16;1.35;;;1.10;;
22107;SDS011;11220;48.812;9.128;2023-03-04T04:32:42;1.67;;;1.10;;
22107;SDS011;11220;48.812;9.128;2023-03-04T04:35:07;1.70;;;1.10;;
22107;SDS011;11220;48.812;9.128;2023-03-04T04:37:33;1.50;;;1.20;;
22107;SDS011;11220;48.812;9.128;2023-03-04T04:39:58;1.67;;;1.15;;
22107;SDS011;11220;48.812;9.128;2023-03-04T04:42:24;2.08;;;1.52;;
22107;SDS011;11220;48.812;9.128;2023-03-04T04:44:50;1.00;;;0.90;;
22107;SDS011;11220;48.812;9.128;2023-03-04T04:47:16;1.42;;;1.20;;
22107;SDS011;11220;48.812;9.128;2023-03-04T04:49:42;1.20;;;1.02;;
22107;SDS011;11220;48.812;9.128;2023-03-04T04:52:07;2.08;;;1.10;;
22107;SDS011;11220;48.812;9.128;2023-03-04T04:54:33;1.58;;;1.20;;
22107;SDS011;11220;48.812;9.128;2023-03-04T04:56:58;1.48;;;1.27;;
22107;SDS011;11220;48.812;9.128;2023-03-04T04:59:24;1.42;;;1.05;;
22107;SDS011;11220;48.812;9.128;2023-03-04T05:01:49;1.38;;;1.10;;
22107;SDS011;11220;48.812;9.128;2023-03-04T05:04:15;1.70;;;1.20;;
22107;SDS011;11220;48.812;9.128;2023-03-04T05:06:40;1.65;;;1.10;;
22107;SDS011;11220;48.812;9.128;2023-03-04T05:09:06;1.80;;;1.20;;
22107;SDS011;11220;48.812;9.128;2023-03-04T05:11:32;1.13;;;0.82;;
22107;SDS011;11220;48.812;9.128;2023-03-04T05:13:58;2.35;;;1.02;;
22107;SDS011;11220;48.812;9.128;2023-03-04T05:16:23;1.35;;;0.98;;
22107;SDS011;11220;48.812;9.128;2023-03-04T05:18:49;1.65;;;1.00;;
22107;SDS011;11220;48.812;9.128;2023-03-04T05:21:14;1.60;;;1.33;;
22107;SDS011;11220;48.812;9.128;2023-03-04T05:23:40;1.45;;;1.30;;
22107;SDS011;11220;48.812;9.128;2023-03-04T05:26:07;1.30;;;1.17;;
22107;SDS011;11220;48.812;9.128;2023-03-04T05:28:35;2.58;;;1.38;;
22107;SDS011;11220;48.812;9.128;2023-03-04T05:31:01;1.55;;;1.08;;
22107;SDS011;11220;48.812;9.128;2023-03-04T05:33:27;1.40;;;1.15;;
22107;SDS011;11220;48.812;9.128;2023-03-04T05:35:53;1.70;;;1.20;;
22107;SDS011;11220;48.812;9.128;2023-03-04T05:38:19;1.40;;;1.05;;
22107;SDS011;11220;48.812;9.128;2023-03-04T05:40:45;1.60;;;1.00;;
22107;SDS011;11220;48.812;9.128;2023-03-04T05:43:11;2.00;;;1.20;;
22107;SDS011;11220;48.812;9.128;2023-03-04T05:45:37;1.85;;;0.95;;
22107;SDS011;11220;48.812;9.128;2023-03-04T05:48:04;1.42;;;1.10;;
22107;SDS011;11220;48.812;9.128;2023-03-04T05:50:30;1.33;;;1.00;;
22107;SDS011;11220;48.812;9.128;2023-03-04T05:52:56;2.65;;;1.00;;
22107;SDS011;11220;48.812;9.128;2023-03-04T05:55:22;1.70;;;1.08;;
22107;SDS011;11220;48.812;9.128;2023-03-04T05:57:47;1.30;;;0.90;;
22107;SDS011;11220;48.812;9.128;2023-03-04T06:00:13;1.33;;;1.00;;
22107;SDS011;11220;48.812;9.128;2023-03-04T06:02:40;1.90;;;1.25;;
22107;SDS011;11220;48.812;9.128;2023-03-04T06:05:07;0.88;;;0.88;;
22107;SDS011;11220;48.812;9.128;2023-03-04T06:07:33;1.30;;;0.82;;
22107;SDS011;11220;48.812;9.128;2023-03-04T06:09:59;1.38;;;0.95;;
22107;SDS011;11220;48.812;9.128;2023-03-04T06:12:24;1.55;;;0.80;;
22107;SDS011;11220;48.812;9.128;2023-03-04T06:14:50;1.67;;;0.82;;
22107;SDS011;11220;48.812;9.128;2023-03-04T06:17:15;0.82;;;0.73;;
22107;SDS011;11220;48.812;9.128;2023-03-04T06:19:41;0.90;;;0.88;;
22107;SDS011;11220;48.812;9.128;2023-03-04T06:22:07;1.23;;;1.10;;
22107;SDS011;11220;48.812;9.128;2023-03-04T06:24:34;0.77;;;0.77;;
22107;SDS011;11220;48.812;9.128;2023-03-04T06:26:59;1.17;;;0.90;;
22107;SDS011;11220;48.812;9.128;2023-03-04T06:29:25;1.30;;;0.82;;
22107;SDS011;11220;48.812;9.128;2023-03-04T06:31:51;1.20;;;0.80;;
22107;SDS011;11220;48.812;9.128;2023-03-04T06:34:16;0.73;;;0.73;;
22107;SDS011;11220;48.812;9.128;2023-03-04T06:36:42;0.95;;;0.90;;
22107;SDS011;11220;48.812;9.128;2023-03-04T06:39:08;0.90;;;0.80;;
22107;SDS011;11220;48.812;9.128;2023-03-04T06:41:33;1.08;;;0.70;;
22107;SDS011;11220;48.812;9.128;2023-03-04T06:43:59;1.20;;;0.77;;
22107;SDS011;11220;48.812;9.128;2023-03-04T06:46:25;0.85;;;0.80;;
22107;SDS011;11220;48.812;9.128;2023-03-04T06:48:51;1.00;;;0.80;;
22107;SDS011;11220;48.812;9.128;2023-03-04T06:51:17;1.63;;;0.98;;
22107;SDS011;11220;48.812;9.128;2023-03-04T06:53:43;0.70;;;0.70;;
22107;SDS011;11220;48.812;9.128;2023-03-04T06:56:10;1.40;;;0.70;;
22107;SDS011;11220;48.812;9.128;2023-03-04T06:58:37;1.02;;;0.70;;
22107;SDS011;11220;48.812;9.128;2023-03-04T07:03:38;1.20;;;0.93;;
22107;SDS011;11220;48.812;9.128;2023-03-04T07:06:04;0.68;;;0.65;;
22107;SDS011;11220;48.812;9.128;2023-03-04T07:08:29;1.08;;;0.82;;
22107;SDS011;11220;48.812;9.128;2023-03-04T07:10:55;0.90;;;0.70;;
22107;SDS011;11220;48.812;9.128;2023-03-04T07:13:20;1.08;;;0.85;;
22107;SDS011;11220;48.812;9.128;2023-03-04T07:15:46;0.88;;;0.80;;
22107;SDS011;11220;48.812;9.128;2023-03-04T07:18:11;1.15;;;0.82;;
22107;SDS011;11220;48.812;9.128;2023-03-04T07:20:37;0.93;;;0.77;;
22107;SDS011;11220;48.812;9.128;2023-03-04T07:23:03;0.80;;;0.70;;
22107;SDS011;11220;48.812;9.128;2023-03-04T07:25:28;1.15;;;0.70;;
22107;SDS011;11220;48.812;9.128;2023-03-04T07:27:54;1.13;;;0.77;;
22107;SDS011;11220;48.812;9.128;2023-03-04T07:30:19;1.02;;;0.73;;
22107;SDS011;11220;48.812;9.128;2023-03-04T07:32:45;0.85;;;0.70;;
22107;SDS011;11220;48.812;9.128;2023-03-04T07:35:10;1.05;;;0.80;;
22107;SDS011;11220;48.812;9.128;2023-03-04T07:37:36;0.75;;;0.65;;
22107;SDS011;11220;48.812;9.128;2023-03-04T07:40:02;0.80;;;0.63;;
22107;SDS011;11220;48.812;9.128;2023-03-04T07:42:27;0.82;;;0.80;;
22107;SDS011;11220;48.812;9.128;2023-03-04T07:44:53;0.90;;;0.90;;
22107;SDS011;11220;48.812;9.128;2023-03-04T07:47:19;1.15;;;0.95;;
22107;SDS011;11220;48.812;9.128;2023-03-04T07:49:45;0.68;;;0.68;;
22107;SDS011;11220;48.812;9.128;2023-03-04T07:52:10;0.90;;;0.70;;
22107;SDS011;11220;48.812;9.128;2023-03-04T07:54:38;0.70;;;0.60;;
22107;SDS011;11220;48.812;9.128;2023-03-04T07:57:03;0.75;;;0.75;;
22107;SDS011;11220;48.812;9.128;2023-03-04T07:59:29;0.73;;;0.52;;
22107;SDS011;11220;48.812;9.128;2023-03-04T08:01:54;0.88;;;0.60;;
22107;SDS011;11220;48.812;9.128;2023-03-04T08:04:20;0.70;;;0.70;;
22107;SDS011;11220;48.812;9.128;2023-03-04T08:06:45;1.05;;;0.77;;
22107;SDS011;11220;48.812;9.128;2023-03-04T08:09:12;0.70;;;0.70;;
22107;SDS011;11220;48.812;9.128;2023-03-04T08:11:39;0.63;;;0.50;;
22107;SDS011;11220;48.812;9.128;2023-03-04T08:14:05;0.75;;;0.73;;
22107;SDS011;11220;48.812;9.128;2023-03-04T08:16:31;1.00;;;0.60;;
22107;SDS011;11220;48.812;9.128;2023-03-04T08:18:57;0.70;;;0.60;;
22107;SDS011;11220;48.812;9.128;2023-03-04T08:21:25;0.77;;;0.60;;
22107;SDS011;11220;48.812;9.128;2023-03-04T08:23:52;0.70;;;0.70;;
22107;SDS011;11220;48.812;9.128;2023-03-04T08:28:49;0.55;;;0.55;;
22107;SDS011;11220;48.812;9.128;2023-03-04T08:31:16;0.80;;;0.70;;
22107;SDS011;11220;48.812;9.128;2023-03-04T08:33:42;1.40;;;0.88;;
22107;SDS011;11220;48.812;9.128;2023-03-04T08:36:09;0.50;;;0.40;;
22107;SDS011;11220;48.812;9.128;2023-03-04T08:38:34;0.70;;;0.70;;
22107;SDS011;11220;48.812;9.128;2023-03-04T08:41:00;0.52;;;0.52;;
22107;SDS011;11220;48.812;9.128;2023-03-04T08:43:27;1.25;;;0.80;;
22107;SDS011;11220;48.812;9.128;2023-03-04T08:45:54;1.10;;;0.70;;
22107;SDS011;11220;48.812;9.128;2023-03-04T08:48:20;0.80;;;0.68;;
22107;SDS011;11220;48.812;9.128;2023-03-04T08:50:46;0.68;;;0.60;;
22107;SDS011;11220;48.812;9.128;2023-03-04T08:53:12;1.33;;;0.70;;
22107;SDS011;11220;48.812;9.128;2023-03-04T08:55:39;0.45;;;0.40;;
22107;SDS011;11220;48.812;9.128;2023-03-04T08:58:05;0.85;;;0.65;;
22107;SDS011;11220;48.812;9.128;2023-03-04T09:00:32;0.73;;;0.57;;
22107;SDS011;11220;48.812;9.128;2023-03-04T09:02:58;1.05;;;0.70;;
22107;SDS011;11220;48.812;9.128;2023-03-04T09:05:24;0.70;;;0.63;;
22107;SDS011;11220;48.812;9.128;2023-03-04T09:07:49;0.50;;;0.50;;
22107;SDS011;11220;48.812;9.128;2023-03-04T09:10:15;1.17;;;0.60;;
22107;SDS011;11220;48.812;9.128;2023-03-04T09:12:41;0.50;;;0.50;;
22107;SDS011;11220;48.812;9.128;2023-03-04T09:15:06;1.10;;;0.80;;
22107;SDS011;11220;48.812;9.128;2023-03-04T09:17:32;0.60;;;0.60;;
22107;SDS011;11220;48.812;9.128;2023-03-04T09:19:58;0.82;;;0.70;;
22107;SDS011;11220;48.812;9.128;2023-03-04T09:22:24;0.70;;;0.60;;
22107;SDS011;11220;48.812;9.128;2023-03-04T09:24:50;1.05;;;0.80;;
22107;SDS011;11220;48.812;9.128;2023-03-04T09:27:15;0.60;;;0.50;;
22107;SDS011;11220;48.812;9.128;2023-03-04T09:29:41;0.70;;;0.70;;
22107;SDS011;11220;48.812;9.128;2023-03-04T09:32:08;1.15;;;0.65;;
22107;SDS011;11220;48.812;9.128;2023-03-04T09:34:33;0.80;;;0.60;;
22107;SDS011;11220;48.812;9.128;2023-03-04T09:36:59;0.50;;;0.50;;
22107;SDS011;11220;48.812;9.128;2023-03-04T09:39:25;0.63;;;0.60;;
22107;SDS011;11220;48.812;9.128;2023-03-04T09:41:51;0.98;;;0.70;;
22107;SDS011;11220;48.812;9.128;2023-03-04T09:44:32;0.82;;;0.73;;
22107;SDS011;11220;48.812;9.128;2023-03-04T09:47:05;0.85;;;0.70;;
22107;SDS011;11220;48.812;9.128;2023-03-04T09:49:34;1.08;;;0.70;;
22107;SDS011;11220;48.812;9.128;2023-03-04T09:54:49;0.90;;;0.70;;
22107;SDS011;11220;48.812;9.128;2023-03-04T09:59:47;0.85;;;0.60;;
22107;SDS011;11220;48.812;9.128;2023-03-04T10:02:29;0.57;;;0.57;;
22107;SDS011;11220;48.812;9.128;2023-03-04T10:05:09;1.10;;;0.47;;
22107;SDS011;11220;48.812;9.128;2023-03-04T10:07:42;0.90;;;0.80;;
22107;SDS011;11220;48.812;9.128;2023-03-04T10:10:14;1.15;;;0.70;;
22107;SDS011;11220;48.812;9.128;2023-03-04T10:12:46;1.40;;;0.73;;
22107;SDS011;11220;48.812;9.128;2023-03-04T10:18:17;0.80;;;0.60;;
22107;SDS011;11220;48.812;9.128;2023-03-04T10:20:55;1.67;;;0.90;;
22107;SDS011;11220;48.812;9.128;2023-03-04T10:23:26;0.88;;;0.70;;
22107;SDS011;11220;48.812;9.128;2023-03-04T10:25:52;0.88;;;0.60;;
22107;SDS011;11220;48.812;9.128;2023-03-04T10:28:25;1.83;;;0.88;;
22107;SDS011;11220;48.812;9.128;2023-03-04T10:31:01;0.60;;;0.60;;
22107;SDS011;11220;48.812;9.128;2023-03-04T10:33:28;1.00;;;0.75;;
22107;SDS011;11220;48.812;9.128;2023-03-04T10:38:32;0.95;;;0.77;;
22107;SDS011;11220;48.812;9.128;2023-03-04T10:41:00;0.65;;;0.65;;
22107;SDS011;11220;48.812;9.128;2023-03-04T10:43:35;0.77;;;0.60;;
22107;SDS011;11220;48.812;9.128;2023-03-04T10:46:01;1.13;;;0.80;;
22107;SDS011;11220;48.812;9.128;2023-03-04T10:48:28;0.95;;;0.75;;
22107;SDS011;11220;48.812;9.128;2023-03-04T10:53:43;1.08;;;0.80;;
22107;SDS011;11220;48.812;9.128;2023-03-04T10:56:29;0.85;;;0.68;;
22107;SDS011;11220;48.812;9.128;2023-03-04T11:01:53;0.60;;;0.60;;
22107;SDS011;11220;48.812;9.128;2023-03-04T11:04:19;0.75;;;0.52;;
22107;SDS011;11220;48.812;9.128;2023-03-04T11:06:49;0.68;;;0.63;;
22107;SDS011;11220;48.812;9.128;2023-03-04T11:09:23;0.95;;;0.73;;
22107;SDS011;11220;48.812;9.128;2023-03-04T11:11:51;0.95;;;0.50;;
22107;SDS011;11220;48.812;9.128;2023-03-04T11:14:21;0.60;;;0.57;;
22107;SDS011;11220;48.812;9.128;2023-03-04T11:19:51;1.20;;;0.88;;
22107;SDS011;11220;48.812;9.128;2023-03-04T11:22:29;1.05;;;0.93;;
22107;SDS011;11220;48.812;9.128;2023-03-04T11:24:58;1.25;;;0.65;;
22107;SDS011;11220;48.812;9.128;2023-03-04T11:27:47;0.80;;;0.70;;
22107;SDS011;11220;48.812;9.128;2023-03-04T11:32:54;0.80;;;0.80;;
22107;SDS011;11220;48.812;9.128;2023-03-04T11:35:29;1.23;;;0.90;;
22107;SDS011;11220;48.812;9.128;2023-03-04T11:38:07;1.05;;;0.88;;
22107;SDS011;11220;48.812;9.128;2023-03-04T11:40:51;1.20;;;0.88;;
22107;SDS011;11220;48.812;9.128;2023-03-04T11:43:35;2.08;;;1.17;;
22107;SDS011;11220;48.812;9.128;2023-03-04T11:57:47;1.52;;;0.80;;
22107;SDS011;11220;48.812;9.128;2023-03-04T12:06:07;1.17;;;1.00;;
22107;SDS011;11220;48.812;9.128;2023-03-04T12:11:53;1.40;;;1.00;;
22107;SDS011;11220;48.812;9.128;2023-03-04T12:23:02;1.48;;;0.98;;
22107;SDS011;11220;48.812;9.128;2023-03-04T12:33:37;1.33;;;0.98;;
22107;SDS011;11220;48.812;9.128;2023-03-04T12:44:34;2.05;;;1.10;;
22107;SDS011;11220;48.812;9.128;2023-03-04T12:47:12;1.48;;;1.00;;
22107;SDS011;11220;48.812;9.128;2023-03-04T12:52:57;1.65;;;1.17;;
22107;SDS011;11220;48.812;9.128;2023-03-04T12:55:36;2.80;;;1.20;;
22107;SDS011;11220;48.812;9.128;2023-03-04T12:58:03;1.98;;;1.20;;
22107;SDS011;11220;48.812;9.128;2023-03-04T13:06:04;1.52;;;1.02;;
22107;SDS011;11220;48.812;9.128;2023-03-04T13:14:21;1.60;;;0.98;;
22107;SDS011;11220;48.812;9.128;2023-03-04T13:16:52;2.17;;;1.58;;
22107;SDS011;11220;48.812;9.128;2023-03-04T13:22:26;1.50;;;1.15;;
22107;SDS011;11220;48.812;9.128;2023-03-04T13:24:51;1.50;;;1.30;;
22107;SDS011;11220;48.812;9.128;2023-03-04T13:33:38;1.65;;;1.20;;
22107;SDS011;11220;48.812;9.128;2023-03-04T13:43:36;1.33;;;1.10;;
22107;SDS011;11220;48.812;9.128;2023-03-04T13:54:14;1.75;;;1.33;;
22107;SDS011;11220;48.812;9.128;2023-03-04T13:59:32;1.40;;;1.15;;
22107;SDS011;11220;48.812;9.128;2023-03-04T14:02:13;1.30;;;1.10;;
22107;SDS011;11220;48.812;9.128;2023-03-04T14:04:54;1.63;;;1.25;;
22107;SDS011;11220;48.812;9.128;2023-03-04T14:07:26;1.85;;;1.40;;
22107;SDS011;11220;48.812;9.128;2023-03-04T14:12:21;1.52;;;1.17;;
22107;SDS011;11220;48.812;9.128;2023-03-04T14:14:51;1.95;;;1.30;;
22107;SDS011;11220;48.812;9.128;2023-03-04T14:17:30;1.33;;;1.13;;
22107;SDS011;11220;48.812;9.128;2023-03-04T14:20:00;1.77;;;1.20;;
22107;SDS011;11220;48.812;9.128;2023-03-04T14:22:40;1.50;;;1.20;;
22107;SDS011;11220;48.812;9.128;2023-03-04T14:27:44;1.42;;;1.17;;
22107;SDS011;11220;48.812;9.128;2023-03-04T14:30:19;1.65;;;1.20;;
22107;SDS011;11220;48.812;9.128;2023-03-04T14:32:52;1.25;;;1.00;;
22107;SDS011;11220;48.812;9.128;2023-03-04T14:35:24;2.00;;;1.15;;
22107;SDS011;11220;48.812;9.128;2023-03-04T14:37:58;1.27;;;1.08;;
22107;SDS011;11220;48.812;9.128;2023-03-04T14:40:33;1.92;;;1.10;;
22107;SDS011;11220;48.812;9.128;2023-03-04T14:43:06;1.08;;;0.82;;
22107;SDS011;11220;48.812;9.128;2023-03-04T14:45:36;1.95;;;1.00;;
22107;SDS011;11220;48.812;9.128;2023-03-04T14:48:04;1.27;;;1.10;;
22107;SDS011;11220;48.812;9.128;2023-03-04T14:50:31;1.13;;;0.95;;
22107;SDS011;11220;48.812;9.128;2023-03-04T14:53:30;1.40;;;1.15;;
22107;SDS011;11220;48.812;9.128;2023-03-04T14:58:29;1.40;;;0.90;;
22107;SDS011;11220;48.812;9.128;2023-03-04T15:01:03;1.10;;;0.80;;
22107;SDS011;11220;48.812;9.128;2023-03-04T15:06:24;1.20;;;1.00;;
22107;SDS011;11220;48.812;9.128;2023-03-04T15:08:54;1.15;;;0.88;;
22107;SDS011;11220;48.812;9.128;2023-03-04T15:11:24;1.77;;;1.02;;
22107;SDS011;11220;48.812;9.128;2023-03-04T15:13:52;1.63;;;0.90;;
22107;SDS011;11220;48.812;9.128;2023-03-04T15:16:21;1.17;;;0.90;;
22107;SDS011;11220;48.812;9.128;2023-03-04T15:19:05;1.77;;;1.25;;
22107;SDS011;11220;48.812;9.128;2023-03-04T15:21:47;2.15;;;0.80;;
22107;SDS011;11220;48.812;9.128;2023-03-04T15:24:13;1.50;;;1.15;;
22107;SDS011;11220;48.812;9.128;2023-03-04T15:26:40;1.00;;;0.80;;
22107;SDS011;11220;48.812;9.128;2023-03-04T15:29:14;1.27;;;0.95;;
22107;SDS011;11220;48.812;9.128;2023-03-04T15:31:42;1.35;;;0.98;;
22107;SDS011;11220;48.812;9.128;2023-03-04T15:34:12;1.40;;;1.00;;
22107;SDS011;11220;48.812;9.128;2023-03-04T15:36:39;1.08;;;0.85;;
22107;SDS011;11220;48.812;9.128;2023-03-04T15:39:05;1.55;;;1.10;;
22107;SDS011;11220;48.812;9.128;2023-03-04T15:41:34;1.73;;;1.20;;
22107;SDS011;11220;48.812;9.128;2023-03-04T15:44:00;1.33;;;1.05;;
22107;SDS011;11220;48.812;9.128;2023-03-04T15:46:25;1.80;;;1.23;;
22107;SDS011;11220;48.812;9.128;2023-03-04T15:48:51;2.33;;;1.77;;
22107;SDS011;11220;48.812;9.128;2023-03-04T15:51:19;2.22;;;1.67;;
22107;SDS011;11220;48.812;9.128;2023-03-04T15:53:46;2.67;;;1.50;;
22107;SDS011;11220;48.812;9.128;2023-03-04T15:56:19;3.03;;;1.50;;
22107;SDS011;11220;48.812;9.128;2023-03-04T15:59:21;2.05;;;1.38;;
22107;SDS011;11220;48.812;9.128;2023-03-04T16:01:40;2.95;;;1.50;;
22107;SDS011;11220;48.812;9.128;2023-03-04T16:04:11;2.03;;;1.38;;
22107;SDS011;11220;48.812;9.128;2023-03-04T16:06:42;2.45;;;1.55;;
22107;SDS011;11220;48.812;9.128;2023-03-04T16:09:13;2.50;;;1.35;;
22107;SDS011;11220;48.812;9.128;2023-03-04T16:11:41;1.70;;;1.00;;
22107;SDS011;11220;48.812;9.128;2023-03-04T16:16:38;2.17;;;1.30;;
22107;SDS011;11220;48.812;9.128;2023-03-04T16:19:06;2.33;;;1.30;;
22107;SDS011;11220;48.812;9.128;2023-03-04T16:21:32;1.73;;;1.20;;
22107;SDS011;11220;48.812;9.128;2023-03-04T16:23:57;2.03;;;1.00;;
22107;SDS011;11220;48.812;9.128;2023-03-04T16:26:27;2.38;;;1.20;;
22107;SDS011;11220;48.812;9.128;2023-03-04T16:28:54;1.58;;;0.98;;
22107;SDS011;11220;48.812;9.128;2023-03-04T16:31:20;1.35;;;1.00;;
22107;SDS011;11220;48.812;9.128;2023-03-04T16:33:46;1.45;;;1.00;;
22107;SDS011;11220;48.812;9.128;2023-03-04T16:36:17;1.30;;;1.05;;
22107;SDS011;11220;48.812;9.128;2023-03-04T16:38:46;1.70;;;1.10;;
22107;SDS011;11220;48.812;9.128;2023-03-04T16:41:13;1.05;;;0.95;;
22107;SDS011;11220;48.812;9.128;2023-03-04T16:43:40;1.23;;;0.90;;
22107;SDS011;11220;48.812;9.128;2023-03-04T16:46:08;0.93;;;0.82;;
22107;SDS011;11220;48.812;9.128;2023-03-04T16:48:36;1.33;;;1.20;;
22107;SDS011;11220;48.812;9.128;2023-03-04T16:51:14;1.40;;;1.00;;
22107;SDS011;11220;48.812;9.128;2023-03-04T16:53:48;2.15;;;1.05;;
22107;SDS011;11220;48.812;9.128;2023-03-04T16:56:20;1.33;;;1.08;;
22107;SDS011;11220;48.812;9.128;2023-03-04T16:58:46;0.95;;;0.93;;
22107;SDS011;11220;48.812;9.128;2023-03-04T17:01:13;1.30;;;1.20;;
22107;SDS011;11220;48.812;9.128;2023-03-04T17:03:44;1.17;;;1.02;;